sensor_id;sensor_type;location;lat;lon;timestamp;pressure;altitude;pressure_sealevel;temperature;humidity
50268;BME280;36153;50.960;6.220;2024-01-15T00:01:51;99427.91;;;3.36;69.83
50268;BME280;36153;50.960;6.220;2024-01-15T00:11:51;99424.00;;;3.53;68.83
50268;BME280;36153;50.960;6.220;2024-01-15T00:21:52;99419.78;;;3.57;67.93
50268;BME280;36153;50.960;6.220;2024-01-15T00:31:54;99394.75;;;3.48;67.96
50268;BME280;36153;50.960;6.220;2024-01-15T00:41:56;99384.94;;;3.32;69.52
50268;BME280;36153;50.960;6.220;2024-01-15T00:51:59;99400.03;;;3.56;68.66
50268;BME280;36153;50.960;6.220;2024-01-15T01:02:01;99394.34;;;3.71;68.81
50268;BME280;36153;50.960;6.220;2024-01-15T01:12:05;99386.25;;;3.52;70.90
50268;BME280;36153;50.960;6.220;2024-01-15T01:22:06;99382.16;;;3.61;70.64
50268;BME280;36153;50.960;6.220;2024-01-15T01:32:06;99380.59;;;3.69;70.82
50268;BME280;36153;50.960;6.220;2024-01-15T01:42:07;99371.78;;;3.59;70.25
50268;BME280;36153;50.960;6.220;2024-01-15T01:52:08;99383.41;;;3.81;70.12
50268;BME280;36153;50.960;6.220;2024-01-15T02:02:10;99378.44;;;3.49;71.75
50268;BME280;36153;50.960;6.220;2024-01-15T02:12:10;99374.00;;;3.42;72.58
50268;BME280;36153;50.960;6.220;2024-01-15T02:22:11;99375.81;;;3.08;73.65
50268;BME280;36153;50.960;6.220;2024-01-15T02:32:11;99372.28;;;3.41;72.52
50268;BME280;36153;50.960;6.220;2024-01-15T02:42:12;99374.91;;;3.42;71.91
50268;BME280;36153;50.960;6.220;2024-01-15T02:52:12;99370.47;;;3.37;72.23
50268;BME280;36153;50.960;6.220;2024-01-15T03:02:13;99378.53;;;3.52;71.67
50268;BME280;36153;50.960;6.220;2024-01-15T03:12:15;99364.38;;;3.33;72.00
50268;BME280;36153;50.960;6.220;2024-01-15T03:22:17;99359.88;;;3.63;71.35
50268;BME280;36153;50.960;6.220;2024-01-15T03:32:18;99356.53;;;3.67;71.25
50268;BME280;36153;50.960;6.220;2024-01-15T03:42:19;99353.47;;;3.86;70.78
50268;BME280;36153;50.960;6.220;2024-01-15T03:52:20;99354.16;;;3.76;71.59
50268;BME280;36153;50.960;6.220;2024-01-15T04:02:21;99328.53;;;3.82;71.22
50268;BME280;36153;50.960;6.220;2024-01-15T04:12:21;99330.13;;;3.77;71.08
50268;BME280;36153;50.960;6.220;2024-01-15T04:22:23;99327.00;;;3.92;70.47
50268;BME280;36153;50.960;6.220;2024-01-15T04:32:24;99326.66;;;3.75;71.24
50268;BME280;36153;50.960;6.220;2024-01-15T04:42:28;99311.31;;;3.81;71.24
50268;BME280;36153;50.960;6.220;2024-01-15T04:52:30;99311.50;;;3.90;71.03
50268;BME280;36153;50.960;6.220;2024-01-15T05:02:30;99305.22;;;3.74;71.64
50268;BME280;36153;50.960;6.220;2024-01-15T05:12:30;99305.31;;;3.81;71.72
50268;BME280;36153;50.960;6.220;2024-01-15T05:22:31;99300.38;;;3.91;71.17
50268;BME280;36153;50.960;6.220;2024-01-15T05:32:32;99301.63;;;4.12;70.33
50268;BME280;36153;50.960;6.220;2024-01-15T05:42:32;99299.88;;;4.11;70.48
50268;BME280;36153;50.960;6.220;2024-01-15T05:52:33;99277.19;;;3.90;71.81
50268;BME280;36153;50.960;6.220;2024-01-15T06:02:33;99284.94;;;3.91;71.63
50268;BME280;36153;50.960;6.220;2024-01-15T06:12:34;99255.91;;;4.00;71.19
50268;BME280;36153;50.960;6.220;2024-01-15T06:22:34;99251.53;;;3.96;71.45
50268;BME280;36153;50.960;6.220;2024-01-15T06:53:50;99257.78;;;4.09;70.49
50268;BME280;36153;50.960;6.220;2024-01-15T06:55:51;99256.16;;;4.14;69.90
50268;BME280;36153;50.960;6.220;2024-01-15T06:57:51;99252.63;;;4.09;70.11
50268;BME280;36153;50.960;6.220;2024-01-15T06:59:52;99256.38;;;4.26;69.63
50268;BME280;36153;50.960;6.220;2024-01-15T07:01:55;99248.56;;;4.20;69.65
50268;BME280;36153;50.960;6.220;2024-01-15T07:04:02;99257.00;;;4.15;69.85
50268;BME280;36153;50.960;6.220;2024-01-15T07:06:03;99249.22;;;4.10;69.76
50268;BME280;36153;50.960;6.220;2024-01-15T07:08:04;99246.59;;;4.07;69.84
50268;BME280;36153;50.960;6.220;2024-01-15T07:10:05;99245.97;;;4.20;69.44
50268;BME280;36153;50.960;6.220;2024-01-15T07:12:06;99243.00;;;3.99;69.98
50268;BME280;36153;50.960;6.220;2024-01-15T07:14:10;99247.53;;;4.12;69.51
50268;BME280;36153;50.960;6.220;2024-01-15T07:16:11;99240.75;;;4.17;69.19
50268;BME280;36153;50.960;6.220;2024-01-15T07:18:11;99239.94;;;4.20;69.50
50268;BME280;36153;50.960;6.220;2024-01-15T07:20:17;99243.47;;;4.25;69.17
50268;BME280;36153;50.960;6.220;2024-01-15T07:22:22;99248.44;;;4.14;69.22
50268;BME280;36153;50.960;6.220;2024-01-15T07:24:25;99243.97;;;4.04;69.56
50268;BME280;36153;50.960;6.220;2024-01-15T07:26:30;99240.66;;;4.11;69.69
50268;BME280;36153;50.960;6.220;2024-01-15T07:28:36;99243.22;;;4.11;69.29
50268;BME280;36153;50.960;6.220;2024-01-15T07:30:36;99248.13;;;3.96;69.89
50268;BME280;36153;50.960;6.220;2024-01-15T07:32:48;99245.63;;;4.02;69.44
50268;BME280;36153;50.960;6.220;2024-01-15T07:34:48;99238.81;;;4.04;69.69
50268;BME280;36153;50.960;6.220;2024-01-15T07:36:48;99243.28;;;4.14;69.11
50268;BME280;36153;50.960;6.220;2024-01-15T07:38:49;99244.06;;;4.10;69.45
50268;BME280;36153;50.960;6.220;2024-01-15T07:40:49;99239.41;;;4.41;68.58
50268;BME280;36153;50.960;6.220;2024-01-15T07:42:50;99248.56;;;4.20;68.38
50268;BME280;36153;50.960;6.220;2024-01-15T07:44:50;99250.66;;;3.94;69.34
50268;BME280;36153;50.960;6.220;2024-01-15T07:46:51;99251.00;;;4.14;69.05
50268;BME280;36153;50.960;6.220;2024-01-15T07:48:52;99254.56;;;4.22;68.60
50268;BME280;36153;50.960;6.220;2024-01-15T07:50:59;99249.38;;;4.19;68.90
50268;BME280;36153;50.960;6.220;2024-01-15T07:52:59;99256.94;;;4.10;69.34
50268;BME280;36153;50.960;6.220;2024-01-15T07:54:59;99256.16;;;4.14;68.93
50268;BME280;36153;50.960;6.220;2024-01-15T07:57:00;99254.63;;;4.25;69.10
50268;BME280;36153;50.960;6.220;2024-01-15T07:59:03;99250.03;;;4.09;69.13
50268;BME280;36153;50.960;6.220;2024-01-15T08:01:03;99262.22;;;4.16;69.16
50268;BME280;36153;50.960;6.220;2024-01-15T08:03:04;99250.97;;;4.13;69.03
50268;BME280;36153;50.960;6.220;2024-01-15T08:05:07;99251.97;;;4.19;69.41
50268;BME280;36153;50.960;6.220;2024-01-15T08:07:08;99240.59;;;4.08;69.42
50268;BME280;36153;50.960;6.220;2024-01-15T08:09:08;99237.28;;;4.15;69.25
50268;BME280;36153;50.960;6.220;2024-01-15T08:11:09;99242.44;;;4.15;69.33
50268;BME280;36153;50.960;6.220;2024-01-15T08:13:09;99239.72;;;4.07;69.60
50268;BME280;36153;50.960;6.220;2024-01-15T08:15:16;99236.16;;;3.99;69.99
50268;BME280;36153;50.960;6.220;2024-01-15T08:17:20;99241.28;;;3.99;80.37
50268;BME280;36153;50.960;6.220;2024-01-15T08:19:20;99245.69;;;4.05;77.50
50268;BME280;36153;50.960;6.220;2024-01-15T08:21:24;99238.69;;;3.98;71.55
50268;BME280;36153;50.960;6.220;2024-01-15T08:23:24;99234.56;;;4.06;70.63
50268;BME280;36153;50.960;6.220;2024-01-15T08:25:30;99229.41;;;4.07;70.75
50268;BME280;36153;50.960;6.220;2024-01-15T08:27:33;99241.16;;;3.90;71.07
50268;BME280;36153;50.960;6.220;2024-01-15T08:33:23;99233.72;;;4.07;70.36
50268;BME280;36153;50.960;6.220;2024-01-15T10:43:08;99310.81;;;3.99;71.76
50268;BME280;36153;50.960;6.220;2024-01-15T10:45:21;99316.94;;;4.04;71.70
50268;BME280;36153;50.960;6.220;2024-01-15T10:47:27;99318.00;;;4.16;71.58
50268;BME280;36153;50.960;6.220;2024-01-15T10:49:31;99316.34;;;4.19;71.47
50268;BME280;36153;50.960;6.220;2024-01-15T10:51:32;99313.97;;;4.30;70.93
50268;BME280;36153;50.960;6.220;2024-01-15T11:24:41;99311.63;;;4.99;67.13
50268;BME280;36153;50.960;6.220;2024-01-15T11:26:44;99309.63;;;4.81;66.84
50268;BME280;36153;50.960;6.220;2024-01-15T11:28:48;99309.63;;;4.79;66.75
50268;BME280;36153;50.960;6.220;2024-01-15T11:30:49;99314.97;;;4.92;66.78
50268;BME280;36153;50.960;6.220;2024-01-15T11:32:49;99321.06;;;4.95;66.30
50268;BME280;36153;50.960;6.220;2024-01-15T11:34:59;99319.75;;;5.25;65.74
50268;BME280;36153;50.960;6.220;2024-01-15T11:37:02;99316.53;;;5.42;66.39
50268;BME280;36153;50.960;6.220;2024-01-15T11:42:07;99317.38;;;6.11;64.04
50268;BME280;36153;50.960;6.220;2024-01-15T11:44:09;99315.63;;;6.09;63.39
50268;BME280;36153;50.960;6.220;2024-01-15T11:46:13;99303.91;;;6.43;62.25
50268;BME280;36153;50.960;6.220;2024-01-15T11:48:16;99299.56;;;6.41;61.47
50268;BME280;36153;50.960;6.220;2024-01-15T11:50:21;99305.53;;;6.30;62.02
50268;BME280;36153;50.960;6.220;2024-01-15T11:52:22;99301.19;;;6.31;62.05
50268;BME280;36153;50.960;6.220;2024-01-15T11:54:23;99300.16;;;6.15;61.76
50268;BME280;36153;50.960;6.220;2024-01-15T11:56:24;99295.19;;;6.30;61.42
50268;BME280;36153;50.960;6.220;2024-01-15T11:58:28;99296.72;;;6.14;61.55
50268;BME280;36153;50.960;6.220;2024-01-15T12:00:29;99297.31;;;5.90;61.84
50268;BME280;36153;50.960;6.220;2024-01-15T12:02:35;99298.03;;;5.77;62.76
50268;BME280;36153;50.960;6.220;2024-01-15T12:04:39;99304.94;;;5.78;62.77
50268;BME280;36153;50.960;6.220;2024-01-15T12:06:40;99314.63;;;5.30;64.38
50268;BME280;36153;50.960;6.220;2024-01-15T12:08:40;99306.47;;;4.99;65.83
50268;BME280;36153;50.960;6.220;2024-01-15T12:10:43;99307.59;;;5.18;65.74
50268;BME280;36153;50.960;6.220;2024-01-15T12:13:04;99315.38;;;5.20;65.35
50268;BME280;36153;50.960;6.220;2024-01-15T12:15:14;99311.25;;;5.33;64.87
50268;BME280;36153;50.960;6.220;2024-01-15T12:17:15;99309.19;;;5.08;65.46
50268;BME280;36153;50.960;6.220;2024-01-15T12:19:19;99314.34;;;5.07;65.18
50268;BME280;36153;50.960;6.220;2024-01-15T12:21:19;99316.81;;;5.02;65.71
50268;BME280;36153;50.960;6.220;2024-01-15T12:23:23;99313.34;;;4.97;66.37
50268;BME280;36153;50.960;6.220;2024-01-15T12:25:36;99317.53;;;4.90;66.63
50268;BME280;36153;50.960;6.220;2024-01-15T12:27:37;99313.81;;;4.73;67.80
50268;BME280;36153;50.960;6.220;2024-01-15T12:29:38;99319.16;;;4.85;67.79
50268;BME280;36153;50.960;6.220;2024-01-15T12:31:41;99330.31;;;4.84;67.80
50268;BME280;36153;50.960;6.220;2024-01-15T12:33:41;99329.59;;;4.91;67.74
50268;BME280;36153;50.960;6.220;2024-01-15T12:35:41;99332.97;;;4.87;68.20
50268;BME280;36153;50.960;6.220;2024-01-15T12:37:42;99338.16;;;4.90;68.43
50268;BME280;36153;50.960;6.220;2024-01-15T12:39:43;99334.75;;;4.91;67.99
50268;BME280;36153;50.960;6.220;2024-01-15T12:41:44;99337.59;;;5.10;67.87
50268;BME280;36153;50.960;6.220;2024-01-15T12:43:45;99330.19;;;4.75;67.88
50268;BME280;36153;50.960;6.220;2024-01-15T12:45:51;99338.66;;;4.68;68.08
50268;BME280;36153;50.960;6.220;2024-01-15T12:47:52;99337.59;;;4.56;68.33
50268;BME280;36153;50.960;6.220;2024-01-15T12:49:55;99344.22;;;4.42;68.43
50268;BME280;36153;50.960;6.220;2024-01-15T12:52:01;99336.63;;;4.50;69.07
50268;BME280;36153;50.960;6.220;2024-01-15T12:54:02;99335.00;;;4.55;68.87
50268;BME280;36153;50.960;6.220;2024-01-15T12:56:03;99332.44;;;4.56;68.94
50268;BME280;36153;50.960;6.220;2024-01-15T12:58:03;99336.13;;;4.71;68.53
50268;BME280;36153;50.960;6.220;2024-01-15T13:00:05;99330.94;;;4.69;68.58
50268;BME280;36153;50.960;6.220;2024-01-15T13:02:07;99343.97;;;4.78;68.53
50268;BME280;36153;50.960;6.220;2024-01-15T13:04:23;99344.09;;;4.86;68.68
50268;BME280;36153;50.960;6.220;2024-01-15T13:06:39;99348.31;;;5.39;66.66
50268;BME280;36153;50.960;6.220;2024-01-15T13:08:39;99349.91;;;5.29;66.83
50268;BME280;36153;50.960;6.220;2024-01-15T13:10:43;99351.28;;;5.06;66.90
50268;BME280;36153;50.960;6.220;2024-01-15T13:12:47;99347.56;;;4.90;67.17
50268;BME280;36153;50.960;6.220;2024-01-15T13:14:50;99360.47;;;4.90;67.11
50268;BME280;36153;50.960;6.220;2024-01-15T13:16:54;99357.06;;;4.39;68.68
50268;BME280;36153;50.960;6.220;2024-01-15T13:18:55;99360.75;;;4.53;68.67
50268;BME280;36153;50.960;6.220;2024-01-15T13:20:59;99365.00;;;4.51;68.73
50268;BME280;36153;50.960;6.220;2024-01-15T13:23:09;99355.38;;;4.41;68.80
50268;BME280;36153;50.960;6.220;2024-01-15T13:25:12;99353.56;;;3.91;71.06
50268;BME280;36153;50.960;6.220;2024-01-15T13:27:13;99353.84;;;4.05;71.38
50268;BME280;36153;50.960;6.220;2024-01-15T13:29:16;99351.59;;;4.22;70.53
50268;BME280;36153;50.960;6.220;2024-01-15T13:31:16;99351.50;;;4.17;71.40
50268;BME280;36153;50.960;6.220;2024-01-15T13:33:22;99353.34;;;4.24;70.44
50268;BME280;36153;50.960;6.220;2024-01-15T13:35:26;99356.28;;;4.43;70.29
50268;BME280;36153;50.960;6.220;2024-01-15T13:37:29;99347.84;;;4.53;69.85
50268;BME280;36153;50.960;6.220;2024-01-15T13:39:35;99353.91;;;4.55;69.51
50268;BME280;36153;50.960;6.220;2024-01-15T13:41:39;99351.72;;;4.80;69.21
50268;BME280;36153;50.960;6.220;2024-01-15T13:43:39;99357.97;;;4.93;68.58
50268;BME280;36153;50.960;6.220;2024-01-15T13:45:46;99364.47;;;4.69;68.95
50268;BME280;36153;50.960;6.220;2024-01-15T13:47:46;99359.06;;;4.54;69.11
50268;BME280;36153;50.960;6.220;2024-01-15T13:49:47;99357.50;;;4.64;68.87
50268;BME280;36153;50.960;6.220;2024-01-15T13:51:50;99356.97;;;4.83;68.47
50268;BME280;36153;50.960;6.220;2024-01-15T13:53:53;99359.19;;;4.63;68.73
50268;BME280;36153;50.960;6.220;2024-01-15T13:55:53;99359.34;;;4.72;68.22
50268;BME280;36153;50.960;6.220;2024-01-15T13:57:53;99359.56;;;4.85;68.07
50268;BME280;36153;50.960;6.220;2024-01-15T13:59:54;99368.28;;;4.93;67.62
50268;BME280;36153;50.960;6.220;2024-01-15T14:01:55;99371.47;;;4.78;67.95
50268;BME280;36153;50.960;6.220;2024-01-15T14:03:55;99367.59;;;5.05;67.52
50268;BME280;36153;50.960;6.220;2024-01-15T14:05:55;99375.94;;;4.88;67.31
50268;BME280;36153;50.960;6.220;2024-01-15T14:07:55;99385.78;;;4.62;67.99
50268;BME280;36153;50.960;6.220;2024-01-15T14:10:02;99379.03;;;4.69;68.31
50268;BME280;36153;50.960;6.220;2024-01-15T14:12:02;99384.19;;;4.69;67.92
50268;BME280;36153;50.960;6.220;2024-01-15T14:14:03;99386.91;;;4.76;67.51
50268;BME280;36153;50.960;6.220;2024-01-15T14:16:06;99396.69;;;4.46;68.08
50268;BME280;36153;50.960;6.220;2024-01-15T14:18:06;99395.06;;;4.52;68.33
50268;BME280;36153;50.960;6.220;2024-01-15T14:20:10;99392.19;;;4.35;69.17
50268;BME280;36153;50.960;6.220;2024-01-15T14:22:10;99405.97;;;4.36;69.00
50268;BME280;36153;50.960;6.220;2024-01-15T14:24:11;99409.44;;;4.38;68.95
50268;BME280;36153;50.960;6.220;2024-01-15T14:26:11;99414.03;;;4.54;68.47
50268;BME280;36153;50.960;6.220;2024-01-15T14:28:11;99410.88;;;4.71;68.41
50268;BME280;36153;50.960;6.220;2024-01-15T14:30:12;99415.59;;;4.46;68.72
50268;BME280;36153;50.960;6.220;2024-01-15T14:32:13;99424.63;;;4.25;69.52
50268;BME280;36153;50.960;6.220;2024-01-15T14:34:13;99428.72;;;4.14;69.68
50268;BME280;36153;50.960;6.220;2024-01-15T14:36:13;99430.34;;;4.10;70.08
50268;BME280;36153;50.960;6.220;2024-01-15T14:38:14;99438.59;;;3.92;70.85
50268;BME280;36153;50.960;6.220;2024-01-15T14:40:17;99439.31;;;3.87;71.15
50268;BME280;36153;50.960;6.220;2024-01-15T14:42:18;99443.34;;;3.75;71.73
50268;BME280;36153;50.960;6.220;2024-01-15T14:44:18;99440.28;;;3.52;73.14
50268;BME280;36153;50.960;6.220;2024-01-15T14:46:19;99441.75;;;3.81;72.53
50268;BME280;36153;50.960;6.220;2024-01-15T14:48:19;99446.81;;;3.76;72.64
50268;BME280;36153;50.960;6.220;2024-01-15T14:50:22;99445.84;;;4.12;71.68
50268;BME280;36153;50.960;6.220;2024-01-15T14:52:25;99441.41;;;4.05;71.55
50268;BME280;36153;50.960;6.220;2024-01-15T14:54:29;99448.19;;;4.00;71.72
50268;BME280;36153;50.960;6.220;2024-01-15T14:56:29;99457.09;;;4.17;71.02
50268;BME280;36153;50.960;6.220;2024-01-15T14:58:29;99463.81;;;4.10;71.41
50268;BME280;36153;50.960;6.220;2024-01-15T15:00:33;99461.53;;;4.24;70.76
50268;BME280;36153;50.960;6.220;2024-01-15T15:02:42;99461.69;;;4.31;70.65
50268;BME280;36153;50.960;6.220;2024-01-15T15:04:45;99473.53;;;4.22;70.49
50268;BME280;36153;50.960;6.220;2024-01-15T15:06:57;99477.00;;;4.24;70.54
50268;BME280;36153;50.960;6.220;2024-01-15T15:08:58;99476.66;;;4.07;70.33
50268;BME280;36153;50.960;6.220;2024-01-15T15:11:05;99482.66;;;4.06;70.18
50268;BME280;36153;50.960;6.220;2024-01-15T15:13:05;99487.91;;;4.11;69.98
50268;BME280;36153;50.960;6.220;2024-01-15T15:15:06;99490.00;;;4.31;69.28
50268;BME280;36153;50.960;6.220;2024-01-15T15:17:10;99490.69;;;4.20;69.32
50268;BME280;36153;50.960;6.220;2024-01-15T15:19:13;99491.03;;;3.98;69.73
50268;BME280;36153;50.960;6.220;2024-01-15T15:21:13;99493.00;;;4.08;69.38
50268;BME280;36153;50.960;6.220;2024-01-15T15:23:14;99494.91;;;4.18;68.93
50268;BME280;36153;50.960;6.220;2024-01-15T15:25:14;99488.56;;;4.45;68.47
50268;BME280;36153;50.960;6.220;2024-01-15T15:27:17;99495.25;;;4.35;68.52
50268;BME280;36153;50.960;6.220;2024-01-15T15:29:17;99495.41;;;4.43;68.17
50268;BME280;36153;50.960;6.220;2024-01-15T15:31:18;99501.44;;;4.43;68.17
50268;BME280;36153;50.960;6.220;2024-01-15T15:33:21;99494.78;;;4.55;67.58
50268;BME280;36153;50.960;6.220;2024-01-15T15:35:22;99510.00;;;4.42;67.72
50268;BME280;36153;50.960;6.220;2024-01-15T15:37:29;99503.94;;;4.39;68.09
50268;BME280;36153;50.960;6.220;2024-01-15T15:39:33;99515.63;;;4.24;68.50
50268;BME280;36153;50.960;6.220;2024-01-15T15:41:33;99516.59;;;4.30;68.80
50268;BME280;36153;50.960;6.220;2024-01-15T15:43:40;99515.75;;;4.29;69.04
50268;BME280;36153;50.960;6.220;2024-01-15T15:45:46;99517.41;;;4.27;69.12
50268;BME280;36153;50.960;6.220;2024-01-15T15:47:59;99530.91;;;4.15;69.55
50268;BME280;36153;50.960;6.220;2024-01-15T15:50:06;99525.16;;;4.28;69.19
50268;BME280;36153;50.960;6.220;2024-01-15T15:52:06;99523.97;;;4.11;69.58
50268;BME280;36153;50.960;6.220;2024-01-15T15:54:10;99538.03;;;4.27;69.56
50268;BME280;36153;50.960;6.220;2024-01-15T15:56:17;99533.81;;;4.31;69.01
50268;BME280;36153;50.960;6.220;2024-01-15T15:58:26;99535.34;;;4.22;69.74
50268;BME280;36153;50.960;6.220;2024-01-15T16:00:33;99536.88;;;4.13;69.62
50268;BME280;36153;50.960;6.220;2024-01-15T16:02:33;99545.69;;;4.24;69.37
50268;BME280;36153;50.960;6.220;2024-01-15T16:04:35;99545.59;;;4.19;69.26
50268;BME280;36153;50.960;6.220;2024-01-15T16:19:35;99589.81;;;4.00;69.88
50268;BME280;36153;50.960;6.220;2024-01-15T16:21:35;99590.75;;;4.05;69.37
50268;BME280;36153;50.960;6.220;2024-01-15T16:23:44;99588.53;;;3.82;70.52
50268;BME280;36153;50.960;6.220;2024-01-15T16:25:45;99587.25;;;4.01;69.36
50268;BME280;36153;50.960;6.220;2024-01-15T16:28:01;99578.09;;;4.14;68.70
50268;BME280;36153;50.960;6.220;2024-01-15T16:30:40;99583.09;;;4.06;68.76
50268;BME280;36153;50.960;6.220;2024-01-15T16:32:41;99580.34;;;3.99;68.93
50268;BME280;36153;50.960;6.220;2024-01-15T16:34:44;99584.56;;;3.97;69.12
50268;BME280;36153;50.960;6.220;2024-01-15T16:36:47;99585.50;;;4.00;68.97
50268;BME280;36153;50.960;6.220;2024-01-15T16:38:51;99588.66;;;4.25;68.37
50268;BME280;36153;50.960;6.220;2024-01-15T16:40:58;99590.13;;;4.14;68.01
50268;BME280;36153;50.960;6.220;2024-01-15T16:42:58;99600.56;;;4.20;67.56
50268;BME280;36153;50.960;6.220;2024-01-15T16:44:59;99595.91;;;4.05;67.90
50268;BME280;36153;50.960;6.220;2024-01-15T16:46:59;99595.84;;;4.02;67.74
50268;BME280;36153;50.960;6.220;2024-01-15T16:49:01;99592.16;;;3.90;68.24
50268;BME280;36153;50.960;6.220;2024-01-15T16:51:02;99605.44;;;3.72;68.80
50268;BME280;36153;50.960;6.220;2024-01-15T16:53:02;99599.66;;;3.81;68.41
50268;BME280;36153;50.960;6.220;2024-01-15T16:55:09;99615.31;;;3.90;68.17
50268;BME280;36153;50.960;6.220;2024-01-15T16:57:09;99602.50;;;3.92;67.66
50268;BME280;36153;50.960;6.220;2024-01-15T16:59:35;99610.91;;;3.85;68.01
50268;BME280;36153;50.960;6.220;2024-01-15T17:01:35;99607.00;;;3.66;68.42
50268;BME280;36153;50.960;6.220;2024-01-15T17:03:42;99609.13;;;3.82;68.18
50268;BME280;36153;50.960;6.220;2024-01-15T17:05:42;99614.41;;;3.53;68.86
50268;BME280;36153;50.960;6.220;2024-01-15T17:07:42;99620.88;;;3.37;69.50
50268;BME280;36153;50.960;6.220;2024-01-15T17:09:48;99615.66;;;3.34;69.59
50268;BME280;36153;50.960;6.220;2024-01-15T17:11:49;99625.66;;;3.23;69.71
50268;BME280;36153;50.960;6.220;2024-01-15T17:13:50;99616.09;;;3.19;70.03
50268;BME280;36153;50.960;6.220;2024-01-15T17:15:51;99619.56;;;3.21;69.73
50268;BME280;36153;50.960;6.220;2024-01-15T17:17:51;99626.53;;;3.25;69.68
50268;BME280;36153;50.960;6.220;2024-01-15T17:19:51;99625.47;;;3.17;69.90
50268;BME280;36153;50.960;6.220;2024-01-15T17:21:56;99626.06;;;3.07;70.42
50268;BME280;36153;50.960;6.220;2024-01-15T17:23:56;99622.88;;;3.17;70.28
50268;BME280;36153;50.960;6.220;2024-01-15T17:26:01;99631.50;;;3.18;70.23
50268;BME280;36153;50.960;6.220;2024-01-15T17:28:01;99639.03;;;3.12;70.37
50268;BME280;36153;50.960;6.220;2024-01-15T17:30:01;99640.47;;;3.02;70.79
50268;BME280;36153;50.960;6.220;2024-01-15T17:32:05;99646.03;;;3.17;70.32
50268;BME280;36153;50.960;6.220;2024-01-15T17:34:05;99639.00;;;3.10;70.30
50268;BME280;36153;50.960;6.220;2024-01-15T17:36:12;99651.69;;;3.04;70.73
50268;BME280;36153;50.960;6.220;2024-01-15T17:38:12;99650.06;;;3.07;70.30
50268;BME280;36153;50.960;6.220;2024-01-15T17:40:15;99660.56;;;3.15;70.17
50268;BME280;36153;50.960;6.220;2024-01-15T17:42:16;99656.22;;;3.13;70.33
50268;BME280;36153;50.960;6.220;2024-01-15T17:44:16;99667.41;;;2.84;71.45
50268;BME280;36153;50.960;6.220;2024-01-15T17:46:16;99664.44;;;2.99;71.16
50268;BME280;36153;50.960;6.220;2024-01-15T17:48:19;99669.44;;;2.96;70.98
50268;BME280;36153;50.960;6.220;2024-01-15T17:50:20;99675.25;;;2.89;71.44
50268;BME280;36153;50.960;6.220;2024-01-15T17:52:21;99670.50;;;3.03;71.33
50268;BME280;36153;50.960;6.220;2024-01-15T17:54:24;99682.81;;;3.13;71.12
50268;BME280;36153;50.960;6.220;2024-01-15T17:56:24;99685.28;;;3.10;71.22
50268;BME280;36153;50.960;6.220;2024-01-15T17:58:31;99684.19;;;3.02;71.52
50268;BME280;36153;50.960;6.220;2024-01-15T18:00:32;99689.25;;;2.99;71.66
50268;BME280;36153;50.960;6.220;2024-01-15T18:02:32;99696.84;;;3.24;70.87
50268;BME280;36153;50.960;6.220;2024-01-15T18:04:38;99694.75;;;2.82;71.87
50268;BME280;36153;50.960;6.220;2024-01-15T18:06:39;99699.09;;;3.14;70.99
50268;BME280;36153;50.960;6.220;2024-01-15T18:08:39;99699.75;;;3.06;71.36
50268;BME280;36153;50.960;6.220;2024-01-15T18:10:40;99695.78;;;2.87;71.90
50268;BME280;36153;50.960;6.220;2024-01-15T18:12:41;99698.63;;;2.97;71.44
50268;BME280;36153;50.960;6.220;2024-01-15T18:14:41;99703.66;;;2.94;71.55
50268;BME280;36153;50.960;6.220;2024-01-15T18:16:41;99716.09;;;3.08;71.33
50268;BME280;36153;50.960;6.220;2024-01-15T18:18:44;99707.53;;;3.08;71.13
50268;BME280;36153;50.960;6.220;2024-01-15T18:20:45;99712.44;;;3.00;71.47
50268;BME280;36153;50.960;6.220;2024-01-15T18:22:45;99717.47;;;2.97;71.71
50268;BME280;36153;50.960;6.220;2024-01-15T18:24:49;99717.22;;;3.18;71.12
50268;BME280;36153;50.960;6.220;2024-01-15T18:26:52;99721.66;;;3.24;70.69
50268;BME280;36153;50.960;6.220;2024-01-15T18:28:58;99718.50;;;3.02;71.18
50268;BME280;36153;50.960;6.220;2024-01-15T18:31:01;99714.09;;;2.98;71.22
50268;BME280;36153;50.960;6.220;2024-01-15T18:33:02;99726.16;;;3.01;71.58
50268;BME280;36153;50.960;6.220;2024-01-15T18:35:02;99721.94;;;3.03;71.34
50268;BME280;36153;50.960;6.220;2024-01-15T18:37:09;99721.75;;;2.97;71.50
50268;BME280;36153;50.960;6.220;2024-01-15T18:39:09;99720.22;;;2.73;71.50
50268;BME280;36153;50.960;6.220;2024-01-15T18:41:22;99722.63;;;2.97;71.62
50268;BME280;36153;50.960;6.220;2024-01-15T18:43:41;99725.28;;;3.00;71.27
50268;BME280;36153;50.960;6.220;2024-01-15T18:45:41;99730.69;;;2.81;71.54
50268;BME280;36153;50.960;6.220;2024-01-15T18:47:44;99726.69;;;2.90;71.98
50268;BME280;36153;50.960;6.220;2024-01-15T18:49:45;99729.09;;;3.13;70.82
50268;BME280;36153;50.960;6.220;2024-01-15T18:51:45;99728.81;;;3.04;70.94
50268;BME280;36153;50.960;6.220;2024-01-15T18:53:50;99735.72;;;3.05;70.75
50268;BME280;36153;50.960;6.220;2024-01-15T18:55:50;99736.69;;;3.10;70.76
50268;BME280;36153;50.960;6.220;2024-01-15T18:57:53;99734.97;;;3.09;70.91
50268;BME280;36153;50.960;6.220;2024-01-15T18:59:55;99734.75;;;3.01;71.00
50268;BME280;36153;50.960;6.220;2024-01-15T19:01:55;99743.31;;;3.02;71.03
50268;BME280;36153;50.960;6.220;2024-01-15T19:04:02;99735.81;;;3.08;70.69
50268;BME280;36153;50.960;6.220;2024-01-15T19:06:02;99740.94;;;3.08;70.52
50268;BME280;36153;50.960;6.220;2024-01-15T19:08:05;99740.25;;;3.14;70.44
50268;BME280;36153;50.960;6.220;2024-01-15T19:10:06;99752.63;;;2.97;71.11
50268;BME280;36153;50.960;6.220;2024-01-15T19:12:13;99752.34;;;3.16;70.98
50268;BME280;36153;50.960;6.220;2024-01-15T19:14:16;99752.28;;;3.15;70.66
50268;BME280;36153;50.960;6.220;2024-01-15T19:16:16;99754.97;;;3.19;70.85
50268;BME280;36153;50.960;6.220;2024-01-15T19:18:25;99758.56;;;3.24;70.51
50268;BME280;36153;50.960;6.220;2024-01-15T19:20:26;99766.28;;;3.24;70.41
50268;BME280;36153;50.960;6.220;2024-01-15T19:22:33;99768.41;;;3.39;70.08
50268;BME280;36153;50.960;6.220;2024-01-15T19:24:36;99767.38;;;3.33;70.70
50268;BME280;36153;50.960;6.220;2024-01-15T19:26:39;99771.25;;;3.49;70.19
50268;BME280;36153;50.960;6.220;2024-01-15T19:28:40;99769.66;;;3.52;69.89
50268;BME280;36153;50.960;6.220;2024-01-15T19:30:43;99779.28;;;3.59;69.89